WZZ205M EPGD-LZTT
Flight info
| Callsign | WZZ205M |
|---|---|
| Flight time | 1h 0m |
| Altitude | 35000 |
| Route | IRLU3B IRLUN N133 PENEX DCT NUBLI DCT KUKAM DCT VAVEL DCT LOLKA LOLK2D |
| Aircraft | A321/M-SDE3FGHIRWY/LB1 |
Departure
| Time | 2026-05-06 17:49 |
|---|---|
| Airport | Gdańsk Lech Wałęsa Airport (EPGD) |
Arrival
| Time | 2026-05-06 18:50 |
|---|---|
| Airport | Poprad-Tatry Airport (LZTT) |
| Time | Latitude | Longitude | Altitude | Speed | Heading |
|---|---|---|---|---|---|
| 2026-05-06 17:20 | 54.38147 | 18.46503 | 460 ft | 0 kts | 22° |
| 2026-05-06 17:26 | 54.38146 | 18.46503 | 460 ft | 0 kts | 22° |
| 2026-05-06 17:34 | 54.38146 | 18.46502 | 460 ft | 0 kts | 22° |
| 2026-05-06 17:38 | 54.38145 | 18.46502 | 460 ft | 0 kts | 22° |
| 2026-05-06 17:39 | 54.38140 | 18.46498 | 460 ft | 4 kts | 22° |
| 2026-05-06 17:39 | 54.38118 | 18.46484 | 458 ft | 4 kts | 3° |
| 2026-05-06 17:39 | 54.38098 | 18.46496 | 456 ft | 4 kts | 302° |
| 2026-05-06 17:39 | 54.38089 | 18.46525 | 460 ft | 1 kts | 293° |
| 2026-05-06 17:40 | 54.38088 | 18.46530 | 460 ft | 2 kts | 293° |
| 2026-05-06 17:44 | 54.38094 | 18.46506 | 458 ft | 6 kts | 292° |
| 2026-05-06 17:44 | 54.38121 | 18.46393 | 460 ft | 12 kts | 292° |
| 2026-05-06 17:44 | 54.38149 | 18.46277 | 460 ft | 9 kts | 292° |
| 2026-05-06 17:45 | 54.38169 | 18.46189 | 460 ft | 7 kts | 292° |
| 2026-05-06 17:45 | 54.38172 | 18.46125 | 460 ft | 6 kts | 243° |
| 2026-05-06 17:45 | 54.38131 | 18.46081 | 460 ft | 8 kts | 205° |
| 2026-05-06 17:45 | 54.38095 | 18.46002 | 460 ft | 9 kts | 264° |
| 2026-05-06 17:46 | 54.38118 | 18.45884 | 457 ft | 11 kts | 292° |
| 2026-05-06 17:46 | 54.38148 | 18.45758 | 455 ft | 11 kts | 292° |
| 2026-05-06 17:46 | 54.38143 | 18.45668 | 453 ft | 6 kts | 224° |
| 2026-05-06 17:46 | 54.38114 | 18.45650 | 455 ft | 2 kts | 199° |
| 2026-05-06 17:47 | 54.38104 | 18.45643 | 455 ft | 1 kts | 199° |
| 2026-05-06 17:47 | 54.38094 | 18.45633 | 455 ft | 4 kts | 212° |
| 2026-05-06 17:47 | 54.38073 | 18.45610 | 453 ft | 3 kts | 212° |
| 2026-05-06 17:47 | 54.38061 | 18.45596 | 455 ft | 4 kts | 214° |
| 2026-05-06 17:48 | 54.38027 | 18.45569 | 454 ft | 4 kts | 177° |
| 2026-05-06 17:48 | 54.38016 | 18.45586 | 455 ft | 0 kts | 121° |
| 2026-05-06 17:48 | 54.38016 | 18.45588 | 455 ft | 2 kts | 117° |
| 2026-05-06 17:48 | 54.37982 | 18.45725 | 456 ft | 39 kts | 111° |
| 2026-05-06 17:49 | 54.37774 | 18.46561 | 456 ft | 111 kts | 113° |
| 2026-05-06 17:49 | 54.37389 | 18.48096 | 514 ft | 163 kts | 108° |
| 2026-05-06 17:49 | 54.36949 | 18.49824 | 1340 ft | 156 kts | 107° |
| 2026-05-06 17:49 | 54.36518 | 18.51568 | 2124 ft | 164 kts | 109° |
| 2026-05-06 17:50 | 54.36064 | 18.53445 | 2611 ft | 180 kts | 112° |
| 2026-05-06 17:50 | 54.35550 | 18.55536 | 2950 ft | 201 kts | 113° |
| 2026-05-06 17:50 | 54.34973 | 18.57860 | 3267 ft | 222 kts | 114° |
| 2026-05-06 17:50 | 54.34353 | 18.60347 | 3945 ft | 230 kts | 118° |
| 2026-05-06 17:51 | 54.33559 | 18.62813 | 4456 ft | 245 kts | 137° |
| 2026-05-06 17:51 | 54.32124 | 18.64423 | 4881 ft | 252 kts | 169° |
| 2026-05-06 17:51 | 54.30393 | 18.64649 | 5621 ft | 251 kts | 186° |
| 2026-05-06 17:51 | 54.28633 | 18.64539 | 6446 ft | 254 kts | 186° |
| 2026-05-06 17:52 | 54.26856 | 18.64431 | 7249 ft | 257 kts | 186° |
| 2026-05-06 17:52 | 54.25058 | 18.64321 | 8060 ft | 260 kts | 187° |
| 2026-05-06 17:52 | 54.23266 | 18.64216 | 8866 ft | 263 kts | 187° |
| 2026-05-06 17:52 | 54.21427 | 18.64113 | 9677 ft | 266 kts | 187° |
| 2026-05-06 17:53 | 54.19523 | 18.64002 | 10207 ft | 279 kts | 187° |
| 2026-05-06 17:53 | 54.17530 | 18.63872 | 10426 ft | 302 kts | 187° |
| 2026-05-06 17:53 | 54.15365 | 18.63732 | 10727 ft | 319 kts | 187° |
| 2026-05-06 17:53 | 54.13120 | 18.63599 | 11330 ft | 326 kts | 187° |
| 2026-05-06 17:54 | 54.10837 | 18.63471 | 12007 ft | 331 kts | 187° |
| 2026-05-06 17:54 | 54.08524 | 18.63348 | 12691 ft | 335 kts | 187° |
| 2026-05-06 17:54 | 54.06179 | 18.63222 | 13372 ft | 339 kts | 187° |
| 2026-05-06 17:54 | 54.03808 | 18.63093 | 14031 ft | 343 kts | 187° |
| 2026-05-06 17:55 | 54.01413 | 18.62961 | 14670 ft | 346 kts | 187° |
| 2026-05-06 17:55 | 53.98994 | 18.62827 | 15315 ft | 349 kts | 186° |
| 2026-05-06 17:55 | 53.96556 | 18.62690 | 15968 ft | 352 kts | 186° |
| 2026-05-06 17:55 | 53.94100 | 18.62548 | 16632 ft | 355 kts | 186° |
| 2026-05-06 17:56 | 53.91619 | 18.62405 | 17276 ft | 358 kts | 186° |
| 2026-05-06 17:56 | 53.89119 | 18.62265 | 17924 ft | 361 kts | 186° |
| 2026-05-06 17:56 | 53.86599 | 18.62127 | 18497 ft | 364 kts | 186° |
| 2026-05-06 17:56 | 53.84059 | 18.61990 | 19056 ft | 366 kts | 186° |
| 2026-05-06 17:57 | 53.81501 | 18.61851 | 19646 ft | 368 kts | 186° |
| 2026-05-06 17:57 | 53.78932 | 18.61707 | 20249 ft | 370 kts | 186° |
| 2026-05-06 17:57 | 53.76346 | 18.61734 | 20852 ft | 376 kts | 179° |
| 2026-05-06 17:57 | 53.73749 | 18.62564 | 21428 ft | 385 kts | 168° |
| 2026-05-06 17:58 | 53.71231 | 18.64222 | 21981 ft | 392 kts | 162° |
| 2026-05-06 17:58 | 53.68726 | 18.66061 | 22534 ft | 394 kts | 162° |
| 2026-05-06 17:58 | 53.66204 | 18.67912 | 23069 ft | 396 kts | 162° |
| 2026-05-06 17:58 | 53.63666 | 18.69766 | 23542 ft | 399 kts | 162° |
| 2026-05-06 17:59 | 53.61111 | 18.71624 | 23992 ft | 401 kts | 162° |
| 2026-05-06 17:59 | 53.58545 | 18.73482 | 24427 ft | 403 kts | 162° |
| 2026-05-06 17:59 | 53.55958 | 18.75349 | 24833 ft | 405 kts | 162° |
| 2026-05-06 17:59 | 53.53360 | 18.77225 | 25265 ft | 408 kts | 162° |
| 2026-05-06 18:00 | 53.50713 | 18.78882 | 25657 ft | 406 kts | 168° |
| 2026-05-06 18:00 | 53.48014 | 18.80312 | 26065 ft | 408 kts | 168° |
| 2026-05-06 18:00 | 53.45299 | 18.81743 | 26482 ft | 410 kts | 168° |
| 2026-05-06 18:00 | 53.42570 | 18.83177 | 26897 ft | 412 kts | 168° |
| 2026-05-06 18:01 | 53.39826 | 18.84619 | 27295 ft | 414 kts | 168° |
| 2026-05-06 18:01 | 53.37107 | 18.86050 | 27657 ft | 416 kts | 168° |
| 2026-05-06 18:01 | 53.34301 | 18.87527 | 28058 ft | 419 kts | 168° |
| 2026-05-06 18:01 | 53.31552 | 18.88976 | 28440 ft | 421 kts | 168° |
| 2026-05-06 18:02 | 53.28755 | 18.90448 | 28810 ft | 423 kts | 168° |
| 2026-05-06 18:02 | 53.25943 | 18.91922 | 29202 ft | 425 kts | 169° |
| 2026-05-06 18:02 | 53.23117 | 18.93398 | 29557 ft | 427 kts | 169° |
| 2026-05-06 18:02 | 53.20275 | 18.94878 | 29924 ft | 429 kts | 169° |
| 2026-05-06 18:03 | 53.17419 | 18.96358 | 30229 ft | 431 kts | 169° |
| 2026-05-06 18:03 | 53.14548 | 18.97842 | 30562 ft | 432 kts | 169° |
| 2026-05-06 18:03 | 53.11674 | 18.99329 | 30969 ft | 432 kts | 169° |
| 2026-05-06 18:03 | 53.08809 | 19.00813 | 31377 ft | 432 kts | 169° |
| 2026-05-06 18:04 | 53.05942 | 19.02301 | 31770 ft | 432 kts | 169° |
| 2026-05-06 18:04 | 53.03074 | 19.03795 | 32163 ft | 432 kts | 169° |
| 2026-05-06 18:04 | 53.00206 | 19.05285 | 32553 ft | 432 kts | 169° |
| 2026-05-06 18:04 | 52.97339 | 19.06769 | 32938 ft | 432 kts | 169° |
| 2026-05-06 18:05 | 52.94469 | 19.08246 | 33273 ft | 432 kts | 169° |
| 2026-05-06 18:05 | 52.91600 | 19.09719 | 33656 ft | 431 kts | 169° |
| 2026-05-06 18:05 | 52.88736 | 19.11190 | 33995 ft | 431 kts | 169° |
| 2026-05-06 18:05 | 52.85867 | 19.12659 | 34304 ft | 431 kts | 169° |
| 2026-05-06 18:06 | 52.83002 | 19.14128 | 34604 ft | 432 kts | 168° |
| 2026-05-06 18:06 | 52.80124 | 19.15607 | 34749 ft | 433 kts | 168° |
| 2026-05-06 18:06 | 52.74426 | 19.18527 | 34781 ft | 427 kts | 169° |
| 2026-05-06 18:07 | 52.68750 | 19.21408 | 34782 ft | 426 kts | 169° |
| 2026-05-06 18:07 | 52.63079 | 19.24285 | 34777 ft | 426 kts | 169° |
| 2026-05-06 18:08 | 52.57406 | 19.27170 | 34786 ft | 427 kts | 169° |
| 2026-05-06 18:08 | 52.51776 | 19.30067 | 34759 ft | 427 kts | 168° |
| 2026-05-06 18:09 | 52.46112 | 19.33034 | 34762 ft | 427 kts | 168° |
| 2026-05-06 18:09 | 52.40442 | 19.35982 | 34767 ft | 427 kts | 168° |
| 2026-05-06 18:10 | 52.34763 | 19.38888 | 34753 ft | 428 kts | 168° |
| 2026-05-06 18:10 | 52.29083 | 19.41805 | 34763 ft | 428 kts | 168° |
| 2026-05-06 18:11 | 52.23392 | 19.44742 | 34767 ft | 429 kts | 168° |
| 2026-05-06 18:11 | 52.17701 | 19.47664 | 34772 ft | 429 kts | 168° |
| 2026-05-06 18:12 | 52.12001 | 19.50567 | 34773 ft | 429 kts | 168° |
| 2026-05-06 18:12 | 52.06303 | 19.53470 | 34768 ft | 429 kts | 168° |
| 2026-05-06 18:13 | 52.00606 | 19.56383 | 34777 ft | 429 kts | 168° |
| 2026-05-06 18:13 | 51.94908 | 19.59281 | 34780 ft | 429 kts | 168° |
| 2026-05-06 18:14 | 51.89204 | 19.62163 | 34783 ft | 429 kts | 169° |
| 2026-05-06 18:14 | 51.83501 | 19.65035 | 34785 ft | 429 kts | 169° |
| 2026-05-06 18:15 | 51.77799 | 19.67906 | 34785 ft | 429 kts | 169° |
| 2026-05-06 18:15 | 51.72093 | 19.70762 | 34788 ft | 429 kts | 169° |
| 2026-05-06 18:16 | 51.66390 | 19.73616 | 34762 ft | 429 kts | 168° |
| 2026-05-06 18:16 | 51.60682 | 19.76469 | 34769 ft | 430 kts | 168° |
| 2026-05-06 18:17 | 51.54971 | 19.79309 | 34765 ft | 430 kts | 169° |
| 2026-05-06 18:17 | 51.49251 | 19.82150 | 34771 ft | 430 kts | 169° |
| 2026-05-06 18:18 | 51.43567 | 19.84965 | 34782 ft | 430 kts | 169° |
| 2026-05-06 18:18 | 51.37844 | 19.87788 | 34789 ft | 431 kts | 169° |
| 2026-05-06 18:19 | 51.32059 | 19.89991 | 34794 ft | 426 kts | 175° |
| 2026-05-06 18:19 | 51.26247 | 19.91816 | 34786 ft | 426 kts | 175° |
| 2026-05-06 18:20 | 51.20428 | 19.93640 | 34770 ft | 426 kts | 175° |
| 2026-05-06 18:20 | 51.14599 | 19.95466 | 34778 ft | 427 kts | 175° |
| 2026-05-06 18:21 | 51.08766 | 19.97307 | 34785 ft | 428 kts | 175° |
| 2026-05-06 18:21 | 51.02923 | 19.99152 | 34780 ft | 428 kts | 175° |
| 2026-05-06 18:22 | 50.98067 | 20.00665 | 34777 ft | 428 kts | 175° |
| 2026-05-06 18:22 | 50.92223 | 20.02458 | 34790 ft | 428 kts | 175° |
| 2026-05-06 18:23 | 50.86376 | 20.04257 | 34799 ft | 428 kts | 175° |
| 2026-05-06 18:23 | 50.80524 | 20.05771 | 34809 ft | 421 kts | 184° |
| 2026-05-06 18:24 | 50.74747 | 20.05256 | 34771 ft | 415 kts | 191° |
| 2026-05-06 18:24 | 50.71871 | 20.04859 | 34350 ft | 415 kts | 191° |
| 2026-05-06 18:24 | 50.68992 | 20.04467 | 33986 ft | 417 kts | 191° |
| 2026-05-06 18:25 | 50.66096 | 20.04076 | 33478 ft | 419 kts | 191° |
| 2026-05-06 18:25 | 50.63185 | 20.03690 | 32781 ft | 420 kts | 190° |
| 2026-05-06 18:25 | 50.60271 | 20.03305 | 32120 ft | 420 kts | 190° |
| 2026-05-06 18:25 | 50.57356 | 20.02921 | 31471 ft | 421 kts | 189° |
| 2026-05-06 18:26 | 50.54445 | 20.02538 | 30844 ft | 420 kts | 188° |
| 2026-05-06 18:26 | 50.51537 | 20.02151 | 30221 ft | 418 kts | 188° |
| 2026-05-06 18:26 | 50.48646 | 20.01760 | 29569 ft | 417 kts | 188° |
| 2026-05-06 18:26 | 50.45765 | 20.01370 | 28861 ft | 415 kts | 188° |
| 2026-05-06 18:27 | 50.42898 | 20.00984 | 28178 ft | 413 kts | 188° |
| 2026-05-06 18:27 | 50.40044 | 20.00602 | 27504 ft | 411 kts | 188° |
| 2026-05-06 18:27 | 50.37219 | 20.00227 | 27057 ft | 404 kts | 188° |
| 2026-05-06 18:27 | 50.34448 | 19.99863 | 26663 ft | 396 kts | 187° |
| 2026-05-06 18:28 | 50.31729 | 19.99505 | 26285 ft | 389 kts | 188° |
| 2026-05-06 18:28 | 50.29044 | 19.99150 | 25893 ft | 386 kts | 188° |
| 2026-05-06 18:28 | 50.26378 | 19.98796 | 25528 ft | 384 kts | 188° |
| 2026-05-06 18:28 | 50.23721 | 19.98442 | 25208 ft | 382 kts | 188° |
| 2026-05-06 18:29 | 50.21077 | 19.98091 | 24893 ft | 380 kts | 188° |
| 2026-05-06 18:29 | 50.18446 | 19.97745 | 24581 ft | 379 kts | 188° |
| 2026-05-06 18:29 | 50.15824 | 19.97402 | 24269 ft | 377 kts | 188° |
| 2026-05-06 18:29 | 50.13220 | 19.97057 | 23968 ft | 375 kts | 187° |
| 2026-05-06 18:30 | 50.10620 | 19.96715 | 23665 ft | 374 kts | 187° |
| 2026-05-06 18:30 | 50.08034 | 19.96377 | 23385 ft | 373 kts | 187° |
| 2026-05-06 18:30 | 50.05435 | 19.96383 | 23058 ft | 375 kts | 179° |
| 2026-05-06 18:30 | 50.02840 | 19.96809 | 22720 ft | 374 kts | 177° |
| 2026-05-06 18:31 | 50.00257 | 19.97245 | 22403 ft | 373 kts | 177° |
| 2026-05-06 18:31 | 49.97687 | 19.97675 | 22066 ft | 371 kts | 177° |
| 2026-05-06 18:31 | 49.95126 | 19.98101 | 21746 ft | 369 kts | 177° |
| 2026-05-06 18:31 | 49.92574 | 19.98524 | 21451 ft | 368 kts | 177° |
| 2026-05-06 18:32 | 49.90034 | 19.98945 | 21209 ft | 366 kts | 177° |
| 2026-05-06 18:32 | 49.87510 | 19.99360 | 20956 ft | 364 kts | 177° |
| 2026-05-06 18:32 | 49.84993 | 19.99770 | 20701 ft | 363 kts | 177° |
| 2026-05-06 18:32 | 49.82490 | 20.00177 | 20448 ft | 361 kts | 177° |
| 2026-05-06 18:33 | 49.80001 | 20.00582 | 20203 ft | 360 kts | 177° |
| 2026-05-06 18:33 | 49.77520 | 20.00986 | 19956 ft | 358 kts | 177° |
| 2026-05-06 18:33 | 49.75050 | 20.01391 | 19710 ft | 356 kts | 177° |
| 2026-05-06 18:33 | 49.72588 | 20.01796 | 19466 ft | 355 kts | 177° |
| 2026-05-06 18:34 | 49.70141 | 20.02202 | 19223 ft | 353 kts | 177° |
| 2026-05-06 18:34 | 49.67707 | 20.02601 | 18988 ft | 351 kts | 177° |
| 2026-05-06 18:34 | 49.65278 | 20.02995 | 18759 ft | 350 kts | 177° |
| 2026-05-06 18:34 | 49.62863 | 20.03388 | 18523 ft | 348 kts | 177° |
| 2026-05-06 18:35 | 49.60487 | 20.03777 | 18297 ft | 347 kts | 177° |
| 2026-05-06 18:35 | 49.58057 | 20.04172 | 18053 ft | 346 kts | 177° |
| 2026-05-06 18:35 | 49.55704 | 20.04553 | 17781 ft | 345 kts | 177° |
| 2026-05-06 18:35 | 49.53318 | 20.04941 | 17513 ft | 345 kts | 177° |
| 2026-05-06 18:36 | 49.50934 | 20.05326 | 17240 ft | 344 kts | 177° |
| 2026-05-06 18:36 | 49.48563 | 20.05708 | 16986 ft | 342 kts | 177° |
| 2026-05-06 18:36 | 49.46202 | 20.06089 | 16716 ft | 341 kts | 177° |
| 2026-05-06 18:36 | 49.43847 | 20.06469 | 16459 ft | 340 kts | 177° |
| 2026-05-06 18:37 | 49.41500 | 20.06850 | 16203 ft | 339 kts | 177° |
| 2026-05-06 18:37 | 49.39156 | 20.07228 | 15954 ft | 338 kts | 177° |
| 2026-05-06 18:37 | 49.36818 | 20.07603 | 15706 ft | 337 kts | 177° |
| 2026-05-06 18:37 | 49.34507 | 20.07977 | 15448 ft | 330 kts | 176° |
| 2026-05-06 18:38 | 49.32262 | 20.08343 | 15208 ft | 320 kts | 176° |
| 2026-05-06 18:38 | 49.30069 | 20.08698 | 14961 ft | 313 kts | 177° |
| 2026-05-06 18:38 | 49.27931 | 20.09043 | 14717 ft | 306 kts | 177° |
| 2026-05-06 18:38 | 49.25846 | 20.09474 | 14477 ft | 301 kts | 169° |
| 2026-05-06 18:39 | 49.23879 | 20.10587 | 14120 ft | 303 kts | 155° |
| 2026-05-06 18:39 | 49.22146 | 20.12466 | 13710 ft | 309 kts | 140° |
| 2026-05-06 18:39 | 49.20781 | 20.15000 | 13312 ft | 311 kts | 125° |
| 2026-05-06 18:40 | 49.19022 | 20.21093 | 12433 ft | 313 kts | 115° |
| 2026-05-06 18:40 | 49.18192 | 20.24185 | 12037 ft | 311 kts | 116° |
| 2026-05-06 18:40 | 49.17503 | 20.27377 | 11476 ft | 327 kts | 105° |
| 2026-05-06 18:40 | 49.17221 | 20.30892 | 11024 ft | 338 kts | 97° |
| 2026-05-06 18:41 | 49.17057 | 20.34471 | 10537 ft | 338 kts | 96° |
| 2026-05-06 18:41 | 49.16888 | 20.38017 | 10285 ft | 329 kts | 96° |
| 2026-05-06 18:41 | 49.16723 | 20.41432 | 10155 ft | 317 kts | 97° |
| 2026-05-06 18:41 | 49.16561 | 20.44740 | 9946 ft | 309 kts | 97° |
| 2026-05-06 18:42 | 49.16401 | 20.47980 | 9705 ft | 303 kts | 97° |
| 2026-05-06 18:42 | 49.16237 | 20.51249 | 8996 ft | 313 kts | 97° |
| 2026-05-06 18:42 | 49.16075 | 20.54485 | 8728 ft | 294 kts | 97° |
| 2026-05-06 18:42 | 49.15752 | 20.57400 | 8576 ft | 263 kts | 118° |
| 2026-05-06 18:43 | 49.14749 | 20.59555 | 8471 ft | 242 kts | 146° |
| 2026-05-06 18:43 | 49.13289 | 20.60702 | 8166 ft | 232 kts | 173° |
| 2026-05-06 18:43 | 49.11725 | 20.60765 | 7897 ft | 222 kts | 188° |
| 2026-05-06 18:43 | 49.10200 | 20.60572 | 7607 ft | 218 kts | 188° |
| 2026-05-06 18:44 | 49.08706 | 20.60391 | 7334 ft | 213 kts | 188° |
| 2026-05-06 18:44 | 49.07274 | 20.60048 | 7061 ft | 204 kts | 205° |
| 2026-05-06 18:44 | 49.06214 | 20.58775 | 6845 ft | 190 kts | 234° |
| 2026-05-06 18:44 | 49.05789 | 20.56952 | 6611 ft | 181 kts | 262° |
| 2026-05-06 18:45 | 49.05854 | 20.55073 | 6404 ft | 172 kts | 268° |
| 2026-05-06 18:45 | 49.05944 | 20.53300 | 6234 ft | 162 kts | 266° |
| 2026-05-06 18:45 | 49.06023 | 20.51630 | 6079 ft | 156 kts | 266° |
| 2026-05-06 18:45 | 49.06102 | 20.50007 | 5868 ft | 152 kts | 266° |
| 2026-05-06 18:46 | 49.06180 | 20.48409 | 5653 ft | 151 kts | 266° |
| 2026-05-06 18:46 | 49.06258 | 20.46812 | 5424 ft | 151 kts | 266° |
| 2026-05-06 18:46 | 49.06336 | 20.45222 | 5203 ft | 149 kts | 265° |
| 2026-05-06 18:46 | 49.06414 | 20.43645 | 4969 ft | 148 kts | 266° |
| 2026-05-06 18:47 | 49.06491 | 20.42079 | 4752 ft | 147 kts | 266° |
| 2026-05-06 18:47 | 49.06567 | 20.40527 | 4529 ft | 147 kts | 267° |
| 2026-05-06 18:47 | 49.06643 | 20.38988 | 4293 ft | 146 kts | 266° |
| 2026-05-06 18:47 | 49.06718 | 20.37455 | 4088 ft | 146 kts | 266° |
| 2026-05-06 18:48 | 49.06793 | 20.35887 | 3847 ft | 148 kts | 266° |
| 2026-05-06 18:48 | 49.06869 | 20.34328 | 3623 ft | 146 kts | 268° |
| 2026-05-06 18:48 | 49.06945 | 20.32769 | 3396 ft | 147 kts | 268° |
| 2026-05-06 18:48 | 49.07020 | 20.31216 | 3158 ft | 146 kts | 270° |
| 2026-05-06 18:49 | 49.07095 | 20.29649 | 2922 ft | 149 kts | 273° |
| 2026-05-06 18:49 | 49.07177 | 20.28078 | 2704 ft | 149 kts | 275° |
| 2026-05-06 18:49 | 49.07249 | 20.26506 | 2431 ft | 147 kts | 271° |
| 2026-05-06 18:49 | 49.07318 | 20.24974 | 2311 ft | 133 kts | 273° |
| 2026-05-06 18:50 | 49.07373 | 20.23840 | 2327 ft | 83 kts | 274° |
| 2026-05-06 18:50 | 49.07402 | 20.23241 | 2348 ft | 33 kts | 274° |
| 2026-05-06 18:50 | 49.07417 | 20.22919 | 2356 ft | 27 kts | 274° |
| 2026-05-06 18:50 | 49.07438 | 20.22778 | 2355 ft | 7 kts | 266° |
| 2026-05-06 18:51 | 49.07416 | 20.22773 | 2355 ft | 3 kts | 105° |
| 2026-05-06 18:51 | 49.07416 | 20.22849 | 2355 ft | 10 kts | 90° |
| 2026-05-06 18:51 | 49.07413 | 20.22980 | 2356 ft | 15 kts | 95° |
| 2026-05-06 18:51 | 49.07403 | 20.23184 | 2350 ft | 25 kts | 93° |
| 2026-05-06 18:52 | 49.07392 | 20.23474 | 2342 ft | 29 kts | 94° |
| 2026-05-06 18:52 | 49.07375 | 20.23799 | 2330 ft | 31 kts | 94° |
| 2026-05-06 18:52 | 49.07358 | 20.24135 | 2322 ft | 25 kts | 94° |
| 2026-05-06 18:52 | 49.07345 | 20.24413 | 2322 ft | 28 kts | 94° |
| 2026-05-06 18:53 | 49.07332 | 20.24693 | 2328 ft | 21 kts | 94° |
| 2026-05-06 18:53 | 49.07324 | 20.24840 | 2316 ft | 9 kts | 105° |
| 2026-05-06 18:53 | 49.07274 | 20.24851 | 2315 ft | 9 kts | 191° |
| 2026-05-06 18:53 | 49.07199 | 20.24841 | 2313 ft | 13 kts | 185° |
| 2026-05-06 18:54 | 49.07093 | 20.24827 | 2310 ft | 11 kts | 185° |
| 2026-05-06 18:54 | 49.07000 | 20.24814 | 2309 ft | 10 kts | 187° |
| 2026-05-06 18:54 | 49.06954 | 20.24758 | 2307 ft | 8 kts | 223° |
| 2026-05-06 18:54 | 49.06906 | 20.24719 | 2302 ft | 5 kts | 201° |
| 2026-05-06 18:55 | 49.06899 | 20.24714 | 2298 ft | 0 kts | 204° |
| 2026-05-06 19:21 | 49.06900 | 20.24714 | 2298 ft | 0 kts | 204° |
| 2026-05-06 19:31 | 49.06900 | 20.24715 | 2298 ft | 0 kts | 204° |
| 2026-05-06 19:49 | 49.06901 | 20.24715 | 2298 ft | 0 kts | 204° |